createdAt,value
2022-12-18T00:02:43.698Z,-5.73
2022-12-18T00:06:46.433Z,-5.75
2022-12-18T00:10:49.730Z,-5.78
2022-12-18T00:14:52.255Z,-5.78
2022-12-18T00:18:54.864Z,-5.78
2022-12-18T00:22:56.680Z,-5.83
2022-12-18T00:26:58.082Z,-5.83
2022-12-18T00:31:03.623Z,-5.84
2022-12-18T00:35:06.766Z,-5.82
2022-12-18T00:39:08.898Z,-5.82
2022-12-18T00:43:10.301Z,-5.82
2022-12-18T00:47:11.720Z,-5.85
2022-12-18T00:51:13.053Z,-5.86
2022-12-18T00:55:14.534Z,-5.84
2022-12-18T00:59:17.140Z,-5.83
2022-12-18T01:03:18.589Z,-5.81
2022-12-18T01:07:20.039Z,-5.80
2022-12-18T01:11:22.217Z,-5.80
2022-12-18T01:15:23.594Z,-5.79
2022-12-18T01:19:25.102Z,-5.75
2022-12-18T01:23:28.069Z,-5.74
2022-12-18T01:27:29.496Z,-5.77
2022-12-18T01:31:33.130Z,-5.73
2022-12-18T01:35:40.486Z,-5.75
2022-12-18T01:39:41.963Z,-5.78
2022-12-18T01:43:52.556Z,-5.81
2022-12-18T01:48:00.335Z,-5.83
2022-12-18T01:52:01.826Z,-5.89
2022-12-18T01:56:04.320Z,-5.89
2022-12-18T02:00:11.826Z,-5.92
2022-12-18T02:04:27.291Z,-5.97
2022-12-18T02:08:47.417Z,-5.98
2022-12-18T02:13:15.813Z,-6.00
2022-12-18T02:17:21.923Z,-6.04
2022-12-18T02:21:34.181Z,-6.06
2022-12-18T02:26:07.822Z,-6.08
2022-12-18T02:30:09.800Z,-6.14
2022-12-18T02:34:13.082Z,-6.20
2022-12-18T02:38:17.074Z,-6.24
2022-12-18T02:42:19.039Z,-6.25
2022-12-18T02:46:28.730Z,-6.25
2022-12-18T02:50:41.361Z,-6.29
2022-12-18T02:55:08.826Z,-6.29
2022-12-18T02:59:25.048Z,-6.33
2022-12-18T03:03:34.847Z,-6.35
2022-12-18T03:07:50.336Z,-6.38
2022-12-18T03:12:16.539Z,-6.44
2022-12-18T03:16:28.023Z,-6.47
2022-12-18T03:20:34.525Z,-6.50
2022-12-18T03:24:40.586Z,-6.54
2022-12-18T03:28:51.782Z,-6.60
2022-12-18T03:33:00.547Z,-6.63
2022-12-18T03:37:03.221Z,-6.64
2022-12-18T03:41:34.072Z,-6.64
2022-12-18T03:45:39.048Z,-6.70
2022-12-18T03:50:12.812Z,-6.71
2022-12-18T03:54:16.009Z,-6.71
2022-12-18T03:58:22.346Z,-6.73
2022-12-18T04:02:25.967Z,-6.75
2022-12-18T04:06:28.506Z,-6.77
2022-12-18T04:10:30.473Z,-6.77
2022-12-18T04:14:36.479Z,-6.81
2022-12-18T04:18:38.140Z,-6.89
2022-12-18T04:22:39.531Z,-6.92
2022-12-18T04:26:40.989Z,-6.93
2022-12-18T04:30:42.694Z,-6.98
2022-12-18T04:34:44.847Z,-6.99
2022-12-18T04:38:46.366Z,-7.06
2022-12-18T04:42:48.002Z,-7.10
2022-12-18T04:46:49.659Z,-7.11
2022-12-18T04:50:51.089Z,-7.12
2022-12-18T04:54:52.498Z,-7.12
2022-12-18T04:58:53.898Z,-7.18
2022-12-18T05:02:55.565Z,-7.21
2022-12-18T05:06:57.023Z,-7.23
2022-12-18T05:11:09.023Z,-7.26
2022-12-18T05:15:10.620Z,-7.34
2022-12-18T05:19:12.435Z,-7.33
2022-12-18T05:23:14.579Z,-7.35
2022-12-18T05:27:16.010Z,-7.37
2022-12-18T05:31:17.477Z,-7.40
2022-12-18T05:35:19.025Z,-7.42
2022-12-18T05:39:20.465Z,-7.46
2022-12-18T05:43:23.563Z,-7.49
2022-12-18T05:47:24.985Z,-7.55
2022-12-18T05:51:26.628Z,-7.57
2022-12-18T05:55:28.043Z,-7.57
2022-12-18T05:59:29.883Z,-7.56
2022-12-18T06:03:38.206Z,-7.59
2022-12-18T06:07:39.666Z,-7.61
2022-12-18T06:11:41.369Z,-7.63
2022-12-18T06:15:43.041Z,-7.72
2022-12-18T06:19:44.477Z,-7.71
2022-12-18T06:23:45.909Z,-7.73
2022-12-18T06:27:48.811Z,-7.76
2022-12-18T06:31:50.253Z,-7.79
2022-12-18T06:35:54.310Z,-7.82
2022-12-18T06:39:57.882Z,-7.88
2022-12-18T06:44:00.048Z,-7.89
2022-12-18T06:48:02.269Z,-7.92
2022-12-18T06:52:03.844Z,-7.94
2022-12-18T06:56:10.351Z,-7.99
2022-12-18T07:00:12.714Z,-8.09
2022-12-18T07:04:14.156Z,-8.12
2022-12-18T07:08:15.697Z,-8.17
2022-12-18T07:12:17.170Z,-8.22
2022-12-18T07:16:24.628Z,-8.26
2022-12-18T07:20:26.868Z,-8.29
2022-12-18T07:24:28.920Z,-8.37
2022-12-18T07:28:30.369Z,-8.41
2022-12-18T07:32:31.825Z,-8.43
2022-12-18T07:36:33.626Z,-8.38
2022-12-18T07:40:35.016Z,-8.36
2022-12-18T07:44:36.880Z,-8.34
2022-12-18T07:48:38.225Z,-8.34
2022-12-18T07:52:39.965Z,-8.32
2022-12-18T07:56:41.350Z,-8.27
2022-12-18T08:00:43.036Z,-8.18
2022-12-18T08:04:46.185Z,-8.05
2022-12-18T08:08:47.693Z,-7.91
2022-12-18T08:12:52.598Z,-7.76
2022-12-18T08:16:54.111Z,-7.59
2022-12-18T08:20:56.228Z,-7.42
2022-12-18T08:24:57.665Z,-7.31
2022-12-18T08:29:01.006Z,-7.19
2022-12-18T08:33:03.366Z,-7.10
2022-12-18T08:37:04.986Z,-7.04
2022-12-18T08:41:09.795Z,-6.98
2022-12-18T08:45:11.438Z,-6.97
2022-12-18T08:49:13.281Z,-6.91
2022-12-18T08:53:15.237Z,-6.83
2022-12-18T08:57:17.088Z,-6.74
2022-12-18T09:01:18.590Z,-6.70
2022-12-18T09:05:20.679Z,-6.64
2022-12-18T09:09:22.167Z,-6.57
2022-12-18T09:13:24.013Z,-6.48
2022-12-18T09:17:25.425Z,-6.43
2022-12-18T09:21:29.443Z,-6.37
2022-12-18T09:25:34.393Z,-6.28
2022-12-18T09:29:35.801Z,-6.23
2022-12-18T09:33:37.458Z,-6.18
2022-12-18T09:37:38.844Z,-6.10
2022-12-18T09:41:42.213Z,-6.02
2022-12-18T09:45:47.175Z,-5.95
2022-12-18T09:49:53.763Z,-5.90
2022-12-18T09:54:01.586Z,-5.83
2022-12-18T09:58:14.111Z,-5.74
2022-12-18T10:02:22.249Z,-5.69
2022-12-18T10:06:40.505Z,-5.64
2022-12-18T10:10:53.285Z,-5.56
2022-12-18T10:15:05.649Z,-5.54
2022-12-18T10:19:25.182Z,-5.51
2022-12-18T10:23:41.404Z,-5.49
2022-12-18T10:27:47.293Z,-5.41
2022-12-18T10:31:48.661Z,-5.36
2022-12-18T10:35:53.622Z,-5.34
2022-12-18T10:40:09.177Z,-5.31
2022-12-18T10:44:24.457Z,-5.27
2022-12-18T10:48:25.965Z,-5.18
2022-12-18T10:52:29.527Z,-5.09
2022-12-18T10:56:34.442Z,-4.98
2022-12-18T11:00:37.051Z,-4.83
2022-12-18T11:04:51.481Z,-4.77
2022-12-18T11:09:12.265Z,-4.76
2022-12-18T11:13:25.768Z,-4.68
2022-12-18T11:17:32.817Z,-4.63
2022-12-18T11:21:40.913Z,-4.57
2022-12-18T11:25:53.447Z,-4.43
2022-12-18T11:30:10.889Z,-4.33
2022-12-18T11:34:34.302Z,-4.19
2022-12-18T11:38:40.067Z,-4.14
2022-12-18T11:43:07.785Z,-4.11
2022-12-18T11:47:29.243Z,-4.11
2022-12-18T11:51:39.596Z,-4.14
2022-12-18T11:55:47.738Z,-4.09
2022-12-18T11:59:59.722Z,-4.02
2022-12-18T12:04:16.596Z,-3.98
2022-12-18T12:08:45.450Z,-3.92
2022-12-18T12:13:28.782Z,-3.89
2022-12-18T12:17:46.607Z,-3.89
2022-12-18T12:22:14.805Z,-3.81
2022-12-18T12:26:37.831Z,-3.76
2022-12-18T12:30:54.021Z,-3.70
2022-12-18T12:35:20.327Z,-3.64
2022-12-18T12:39:30.114Z,-3.60
2022-12-18T12:43:51.475Z,-3.56
2022-12-18T12:47:54.155Z,-3.48
2022-12-18T12:52:17.559Z,-3.44
2022-12-18T12:56:21.259Z,-3.39
2022-12-18T13:00:25.280Z,-3.32
2022-12-18T13:04:44.789Z,-3.24
2022-12-18T13:09:01.708Z,-3.16
2022-12-18T13:13:17.907Z,-3.10
2022-12-18T13:17:30.451Z,-3.02
2022-12-18T13:21:34.384Z,-3.03
2022-12-18T13:25:39.578Z,-3.04
2022-12-18T13:29:43.946Z,-2.97
2022-12-18T13:34:23.978Z,-2.93
2022-12-18T13:38:26.954Z,-2.94
2022-12-18T13:42:59.842Z,-2.92
2022-12-18T13:47:03.784Z,-2.92
2022-12-18T13:51:08.475Z,-2.94
2022-12-18T13:55:19.192Z,-2.90
2022-12-18T13:59:24.814Z,-2.84
2022-12-18T14:03:28.898Z,-2.85
2022-12-18T14:07:37.772Z,-2.84
2022-12-18T14:11:51.223Z,-2.84
2022-12-18T14:15:53.315Z,-2.87
2022-12-18T14:19:54.714Z,-2.88
2022-12-18T14:24:16.698Z,-2.91
2022-12-18T14:28:22.915Z,-2.91
2022-12-18T14:32:24.498Z,-2.90
2022-12-18T14:36:28.708Z,-2.91
2022-12-18T14:40:30.166Z,-2.94
2022-12-18T14:44:44.207Z,-2.95
2022-12-18T14:48:52.743Z,-2.97
2022-12-18T14:52:54.127Z,-2.99
2022-12-18T14:57:27.365Z,-3.03
2022-12-18T15:01:45.563Z,-3.03
2022-12-18T15:05:48.026Z,-3.04
2022-12-18T15:10:21.709Z,-3.07
2022-12-18T15:14:43.636Z,-3.11
2022-12-18T15:18:49.002Z,-3.14
2022-12-18T15:22:50.478Z,-3.16
2022-12-18T15:26:52.070Z,-3.21
2022-12-18T15:31:12.556Z,-3.21
2022-12-18T15:35:23.364Z,-3.25
2022-12-18T15:39:25.479Z,-3.23
2022-12-18T15:43:36.585Z,-3.23
2022-12-18T15:47:38.031Z,-3.23
2022-12-18T15:51:40.054Z,-3.23
2022-12-18T15:56:01.337Z,-3.21
2022-12-18T16:00:06.738Z,-3.22
2022-12-18T16:04:12.524Z,-3.23
2022-12-18T16:08:13.889Z,-3.21
2022-12-18T16:12:24.623Z,-3.19
2022-12-18T16:16:26.108Z,-3.17
2022-12-18T16:20:28.730Z,-3.15
2022-12-18T16:24:32.629Z,-3.13
2022-12-18T16:28:34.022Z,-3.11
2022-12-18T16:32:35.396Z,-3.09
2022-12-18T16:36:36.879Z,-3.06
2022-12-18T16:40:58.773Z,-3.05
2022-12-18T16:45:00.560Z,-3.05
2022-12-18T16:49:01.987Z,-3.02
2022-12-18T16:53:03.489Z,-3.00
2022-12-18T16:57:05.420Z,-3.02
2022-12-18T17:01:11.805Z,-3.01
2022-12-18T17:05:13.166Z,-3.03
2022-12-18T17:09:16.410Z,-3.04
2022-12-18T17:13:20.273Z,-3.03
2022-12-18T17:17:25.970Z,-3.05
2022-12-18T17:21:27.339Z,-3.08
2022-12-18T17:25:28.775Z,-3.08
2022-12-18T17:29:30.837Z,-3.07
2022-12-18T17:33:32.363Z,-3.08
2022-12-18T17:37:33.810Z,-3.05
2022-12-18T17:41:35.540Z,-3.03
2022-12-18T17:45:40.550Z,-3.02
2022-12-18T17:49:41.974Z,-2.96
2022-12-18T17:53:44.434Z,-2.94
2022-12-18T17:57:46.780Z,-2.93
2022-12-18T18:01:48.456Z,-2.93
2022-12-18T18:05:55.601Z,-2.93
2022-12-18T18:09:57.058Z,-2.87
2022-12-18T18:14:01.712Z,-2.86
2022-12-18T18:18:03.323Z,-2.85
2022-12-18T18:22:04.774Z,-2.84
2022-12-18T18:26:08.230Z,-2.79
2022-12-18T18:30:11.248Z,-2.75
2022-12-18T18:34:18.074Z,-2.72
2022-12-18T18:38:19.707Z,-2.68
2022-12-18T18:42:23.519Z,-2.66
2022-12-18T18:46:25.637Z,-2.63
2022-12-18T18:50:27.335Z,-2.63
2022-12-18T18:54:29.415Z,-2.61
2022-12-18T18:58:30.923Z,-2.60
2022-12-18T19:02:32.478Z,-2.60
2022-12-18T19:06:34.431Z,-2.59
2022-12-18T19:10:41.049Z,-2.56
2022-12-18T19:14:43.448Z,-2.57
2022-12-18T19:18:46.795Z,-2.54
2022-12-18T19:22:55.388Z,-2.50
2022-12-18T19:26:58.120Z,-2.51
2022-12-18T19:31:02.849Z,-2.48
2022-12-18T19:35:04.986Z,-2.49
2022-12-18T19:39:14.957Z,-2.50
2022-12-18T19:43:17.306Z,-2.52
2022-12-18T19:47:18.683Z,-2.52
2022-12-18T19:51:22.431Z,-2.52
2022-12-18T19:55:23.996Z,-2.53
2022-12-18T19:59:25.459Z,-2.51
2022-12-18T20:03:32.031Z,-2.48
2022-12-18T20:07:34.401Z,-2.47
2022-12-18T20:11:41.944Z,-2.44
2022-12-18T20:15:45.485Z,-2.42
2022-12-18T20:19:47.058Z,-2.42
2022-12-18T20:23:48.625Z,-2.39
2022-12-18T20:27:49.961Z,-2.37
2022-12-18T20:31:52.606Z,-2.33
2022-12-18T20:35:54.286Z,-2.31
2022-12-18T20:39:56.272Z,-2.29
2022-12-18T20:43:57.893Z,-2.25
2022-12-18T20:48:00.872Z,-2.26
2022-12-18T20:52:03.018Z,-2.23
2022-12-18T20:56:13.008Z,-2.24
2022-12-18T21:00:16.534Z,-2.22
2022-12-18T21:04:23.322Z,-2.18
2022-12-18T21:08:25.161Z,-2.16
2022-12-18T21:12:44.098Z,-2.12
2022-12-18T21:17:02.401Z,-2.07
2022-12-18T21:21:03.901Z,-2.05
2022-12-18T21:25:05.779Z,-2.03
2022-12-18T21:29:10.934Z,-2.01
2022-12-18T21:33:12.447Z,-2.00
2022-12-18T21:37:15.525Z,-1.99
2022-12-18T21:41:52.164Z,-1.99
2022-12-18T21:45:57.079Z,-1.98
2022-12-18T21:50:00.616Z,-1.99
2022-12-18T21:54:02.446Z,-1.99
2022-12-18T21:58:03.873Z,-2.00
2022-12-18T22:02:26.778Z,-2.01
2022-12-18T22:06:52.198Z,-1.99
2022-12-18T22:11:00.659Z,-2.00
2022-12-18T22:15:06.303Z,-1.94
2022-12-18T22:19:10.739Z,-1.94
2022-12-18T22:23:12.969Z,-1.93
2022-12-18T22:27:14.428Z,-1.88
2022-12-18T22:31:15.847Z,-1.86
2022-12-18T22:35:17.500Z,-1.83
2022-12-18T22:39:24.691Z,-1.79
2022-12-18T22:43:26.209Z,-1.75
2022-12-18T22:47:51.141Z,-1.72
2022-12-18T22:52:06.675Z,-1.69
2022-12-18T22:56:17.095Z,-1.68
2022-12-18T23:00:24.565Z,-1.64
2022-12-18T23:04:29.311Z,-1.63
2022-12-18T23:08:37.797Z,-1.61
2022-12-18T23:12:39.400Z,-1.61
2022-12-18T23:16:41.332Z,-1.55
2022-12-18T23:20:45.550Z,-1.56
2022-12-18T23:24:51.856Z,-1.55
2022-12-18T23:28:57.955Z,-1.54
2022-12-18T23:33:02.353Z,-1.53
2022-12-18T23:37:04.074Z,-1.46
2022-12-18T23:41:20.426Z,-1.46
2022-12-18T23:45:23.129Z,-1.42
2022-12-18T23:49:28.361Z,-1.39
2022-12-18T23:57:49.533Z,-1.34
